Time;durP1;ratioP1;P1;durP2;ratioP2;P2;SDS_P1;SDS_P2;PMS_P1;PMS_P2;Temp;Humidity;BMP_temperature;BMP_pressure;BME280_temperature;BME280_humidity;BME280_pressure;Samples;Min_cycle;Max_cycle;Signal;HPM_P1;HPM_P2
2022/11/11 00:01:14;;;;;;;17.45;9.57;;;11.10;99.90;;;;;;5120464;27;20503;-51
2022/11/11 00:03:40;;;;;;;19.77;12.18;;;11.10;99.90;;;;;;5138365;27;20042;-47
2022/11/11 00:06:10;;;;;;;15.63;10.55;;;11.10;99.90;;;;;;5139174;27;20049;-51
2022/11/11 00:08:36;;;;;;;19.00;10.45;;;11.20;99.90;;;;;;5138240;27;20075;-53
2022/11/11 00:11:04;;;;;;;22.48;11.65;;;11.10;99.90;;;;;;5138821;27;20388;-46
2022/11/11 00:13:30;;;;;;;19.90;11.00;;;11.20;99.90;;;;;;5136276;27;20085;-51
2022/11/11 00:15:56;;;;;;;14.93;11.10;;;11.20;99.90;;;;;;5138745;27;20527;-53
2022/11/11 00:26:37;;;;;;;26.20;12.27;;;11.30;99.90;;;;;;5125212;27;20070;-46
2022/11/11 00:29:03;;;;;;;24.63;10.93;;;11.40;99.90;;;;;;5138627;27;20039;-48
2022/11/11 00:31:29;;;;;;;20.85;11.18;;;11.40;99.90;;;;;;5138116;27;20043;-57
2022/11/11 00:33:54;;;;;;;13.75;10.45;;;11.40;99.90;;;;;;5139063;27;20031;-45
2022/11/11 00:36:20;;;;;;;18.48;10.60;;;11.40;99.90;;;;;;5138653;27;20043;-55
2022/11/11 00:38:46;;;;;;;18.55;10.85;;;11.40;99.90;;;;;;5119807;27;20043;-43
2022/11/11 00:41:17;;;;;;;21.63;10.88;;;11.40;99.90;;;;;;5135296;27;20103;-51
2022/11/11 00:43:45;;;;;;;17.23;10.77;;;11.40;99.90;;;;;;5138156;27;20377;-46
2022/11/11 00:51:40;;;;;;;19.83;9.77;;;11.40;99.90;;;;;;5137774;27;20074;-52
2022/11/11 00:54:06;;;;;;;16.63;10.13;;;11.50;99.90;;;;;;5138059;27;20047;-45
2022/11/11 00:56:35;;;;;;;16.38;8.90;;;11.50;99.90;;;;;;5118950;27;20046;-44
2022/11/11 00:59:01;;;;;;;17.67;9.48;;;11.50;99.90;;;;;;5118513;27;20078;-48
2022/11/11 01:01:27;;;;;;;14.82;9.50;;;11.60;99.90;;;;;;5138010;27;20195;-51
2022/11/11 01:03:52;;;;;;;18.25;10.23;;;11.50;99.90;;;;;;5119473;27;20472;-50
2022/11/11 01:06:18;;;;;;;18.77;10.00;;;11.50;99.90;;;;;;5119265;27;20697;-49
2022/11/11 01:08:44;;;;;;;18.80;11.25;;;11.50;99.90;;;;;;5118623;27;20038;-54
2022/11/11 01:11:14;;;;;;;17.08;11.93;;;11.50;99.90;;;;;;5137729;27;20687;-51
2022/11/11 01:13:41;;;;;;;20.85;11.32;;;11.40;99.90;;;;;;5137284;27;20031;-53
2022/11/11 01:16:10;;;;;;;19.13;12.00;;;11.40;99.90;;;;;;5137690;27;20038;-54
2022/11/11 01:18:36;;;;;;;26.92;11.52;;;11.40;99.90;;;;;;5118783;27;20049;-46
2022/11/11 01:21:05;;;;;;;17.13;11.75;;;11.30;99.90;;;;;;5136847;27;20050;-50
2022/11/11 01:23:32;;;;;;;17.40;12.02;;;11.30;99.90;;;;;;5136270;27;20053;-50
2022/11/11 01:26:03;;;;;;;22.08;12.20;;;11.20;99.90;;;;;;5137531;27;20467;-54
2022/11/11 01:28:29;;;;;;;20.17;12.90;;;11.20;99.90;;;;;;5136243;27;20047;-57
2022/11/11 01:31:00;;;;;;;19.20;12.73;;;11.20;99.90;;;;;;5137055;27;20124;-50
2022/11/11 01:33:26;;;;;;;15.05;11.82;;;11.20;99.90;;;;;;5136883;27;20387;-51
2022/11/11 01:35:51;;;;;;;20.08;12.90;;;11.10;99.90;;;;;;5136777;27;20039;-50
2022/11/11 01:38:17;;;;;;;22.17;12.55;;;11.10;99.90;;;;;;5117650;27;20711;-53
2022/11/11 01:40:45;;;;;;;21.35;13.82;;;11.10;99.90;;;;;;5132880;27;20035;-53
2022/11/11 01:43:10;;;;;;;19.63;13.52;;;11.10;99.90;;;;;;5117756;27;20555;-50
2022/11/11 01:45:50;;;;;;;23.13;15.27;;;11.00;99.90;;;;;;5137364;27;20053;-43
2022/11/11 01:51:45;;;;;;;28.00;14.57;;;10.90;99.90;;;;;;5126983;27;20417;-53
2022/11/11 01:54:50;;;;;;;22.73;14.57;;;10.90;99.90;;;;;;5004508;28;20053;-55
2022/11/11 01:57:44;;;;;;;22.90;14.07;;;10.90;99.90;;;;;;5015657;28;20056;-52
2022/11/11 02:00:13;;;;;;;21.70;15.02;;;10.90;99.90;;;;;;5031844;28;20045;-50
2022/11/11 02:02:56;;;;;;;27.55;15.65;;;10.90;99.90;;;;;;5031830;28;20049;-52
2022/11/11 02:05:42;;;;;;;30.00;17.20;;;10.90;99.90;;;;;;5003234;28;20529;-49
2022/11/11 02:08:33;;;;;;;25.95;15.90;;;10.90;99.90;;;;;;5031521;28;20128;-53
2022/11/11 02:11:04;;;;;;;22.55;15.57;;;10.80;99.90;;;;;;5032250;28;20057;-55
2022/11/11 02:16:16;;;;;;;24.50;16.83;;;10.80;99.90;;;;;;5032348;28;20405;-43
2022/11/11 02:18:43;;;;;;;24.85;17.38;;;10.80;99.90;;;;;;5032037;28;20930;-52
2022/11/11 02:21:32;;;;;;;22.08;16.65;;;10.80;99.90;;;;;;5031668;28;20197;-56
2022/11/11 02:24:18;;;;;;;25.60;17.60;;;10.80;99.90;;;;;;5031894;28;20534;-50
2022/11/11 02:26:44;;;;;;;26.90;17.98;;;10.70;99.90;;;;;;5031554;28;20064;-53
2022/11/11 02:29:16;;;;;;;26.88;19.45;;;10.70;99.90;;;;;;5031943;28;20045;-52
2022/11/11 02:31:42;;;;;;;29.35;20.38;;;10.70;99.90;;;;;;5105501;27;20050;-43
2022/11/11 02:34:08;;;;;;;27.23;18.50;;;10.70;99.90;;;;;;5118566;27;20117;-52
2022/11/11 02:36:34;;;;;;;27.02;18.92;;;10.70;99.90;;;;;;5138479;27;20038;-48
2022/11/11 02:39:00;;;;;;;25.45;18.85;;;10.70;99.90;;;;;;5140006;27;20043;-48
2022/11/11 02:44:10;;;;;;;28.05;19.20;;;10.70;99.90;;;;;;5141643;27;20058;-47
2022/11/11 02:46:36;;;;;;;27.90;20.27;;;10.70;99.90;;;;;;5123017;27;20034;-48
2022/11/11 02:49:01;;;;;;;28.88;20.05;;;10.80;99.90;;;;;;5140335;27;20039;-47
2022/11/11 02:51:27;;;;;;;26.67;22.67;;;10.80;99.90;;;;;;5140048;27;20039;-55
2022/11/11 02:53:57;;;;;;;29.02;20.58;;;10.70;99.90;;;;;;5140373;27;20118;-54
2022/11/11 02:59:08;;;;;;;28.80;21.65;;;10.90;99.90;;;;;;5110490;27;20130;-55
2022/11/11 03:01:34;;;;;;;30.95;22.50;;;10.90;99.90;;;;;;5121414;27;20489;-55
2022/11/11 03:03:59;;;;;;;34.55;22.70;;;10.80;99.90;;;;;;5140455;27;20042;-48
2022/11/11 03:06:25;;;;;;;28.55;22.17;;;10.90;99.90;;;;;;5139978;27;20103;-50
2022/11/11 03:08:51;;;;;;;31.35;21.17;;;10.90;99.90;;;;;;5139656;27;20381;-54
2022/11/11 03:11:26;;;;;;;29.70;22.27;;;10.90;99.90;;;;;;5140179;27;20180;-42
2022/11/11 03:13:57;;;;;;;34.08;24.88;;;10.90;99.90;;;;;;5141150;27;20460;-44
2022/11/11 03:19:07;;;;;;;31.23;22.98;;;10.90;99.90;;;;;;5139704;27;20164;-49
2022/11/11 03:21:33;;;;;;;30.10;21.73;;;10.90;99.90;;;;;;5138801;27;20046;-50
2022/11/11 03:23:59;;;;;;;33.50;23.88;;;10.90;99.90;;;;;;5139872;27;20130;-58
2022/11/11 03:26:24;;;;;;;29.95;23.33;;;10.90;99.90;;;;;;5140002;27;20123;-57
2022/11/11 03:28:50;;;;;;;34.20;23.33;;;10.90;99.90;;;;;;5140187;27;20085;-54
2022/11/11 03:31:16;;;;;;;33.13;23.83;;;10.90;99.90;;;;;;5139484;27;20039;-48
2022/11/11 03:33:42;;;;;;;34.95;24.20;;;10.90;99.90;;;;;;5139991;27;20446;-43
2022/11/11 03:36:08;;;;;;;35.58;23.50;;;11.00;99.90;;;;;;5121135;27;20053;-45
2022/11/11 03:38:33;;;;;;;29.00;23.00;;;11.00;99.90;;;;;;5139156;27;20407;-47
2022/11/11 03:40:59;;;;;;;34.42;23.83;;;11.00;99.90;;;;;;5135471;27;20380;-57
2022/11/11 03:43:27;;;;;;;33.33;24.30;;;11.00;99.90;;;;;;5139844;27;20429;-52
2022/11/11 03:45:54;;;;;;;35.38;24.27;;;11.00;99.90;;;;;;5120163;27;20058;-54
2022/11/11 03:48:20;;;;;;;31.90;23.83;;;10.90;99.90;;;;;;5139223;27;20070;-58
2022/11/11 03:50:47;;;;;;;27.92;23.08;;;11.00;99.90;;;;;;5139551;27;20121;-44
2022/11/11 03:53:14;;;;;;;31.35;25.48;;;10.90;99.90;;;;;;5139066;27;20429;-52
2022/11/11 03:55:40;;;;;;;28.98;23.38;;;11.00;99.90;;;;;;5139350;27;20394;-60
2022/11/11 03:58:06;;;;;;;30.65;23.77;;;10.90;99.90;;;;;;5138521;27;20047;-56
2022/11/11 04:00:32;;;;;;;31.60;23.45;;;11.00;99.90;;;;;;5137722;27;20384;-45
2022/11/11 04:11:37;;;;;;;35.20;24.75;;;10.90;99.90;;;;;;5138080;27;20155;-50
2022/11/11 04:16:52;;;;;;;33.03;25.92;;;10.80;99.90;;;;;;5107125;27;20046;-45
2022/11/11 04:22:02;;;;;;;32.88;27.42;;;10.70;99.90;;;;;;5138244;27;20049;-44
2022/11/11 04:27:14;;;;;;;35.63;27.05;;;10.60;99.90;;;;;;5139358;27;20146;-46
2022/11/11 04:29:40;;;;;;;32.95;27.00;;;10.50;99.90;;;;;;5138770;27;20114;-50
2022/11/11 04:34:58;;;;;;;33.45;27.30;;;10.40;99.90;;;;;;5119963;27;20130;-48
2022/11/11 04:37:26;;;;;;;40.20;27.25;;;10.40;99.90;;;;;;5138340;27;20636;-57
2022/11/11 04:42:38;;;;;;;32.00;27.13;;;10.40;99.90;;;;;;5136484;27;20046;-50
2022/11/11 04:48:00;;;;;;;36.47;27.77;;;10.40;99.90;;;;;;5137662;27;20903;-45
2022/11/11 04:50:31;;;;;;;40.03;28.42;;;10.40;99.90;;;;;;5119805;27;20046;-56
2022/11/11 04:52:57;;;;;;;37.25;27.17;;;10.40;99.90;;;;;;5138225;27;20097;-52
2022/11/11 04:58:08;;;;;;;41.03;28.25;;;10.30;99.90;;;;;;5137253;27;20058;-56
2022/11/11 05:00:34;;;;;;;36.60;27.42;;;10.30;99.90;;;;;;5137176;27;20046;-44
2022/11/11 05:03:15;;;;;;;35.03;26.88;;;10.20;99.90;;;;;;5136538;27;20053;-53
2022/11/11 05:08:56;;;;;;;37.28;27.90;;;10.20;99.90;;;;;;5052334;28;20456;-46
2022/11/11 05:11:30;;;;;;;36.20;28.50;;;10.20;99.90;;;;;;5052085;28;20136;-47
2022/11/11 05:22:26;;;;;;;33.42;26.35;;;10.40;99.90;;;;;;5052272;28;20569;-51
2022/11/11 05:27:37;;;;;;;42.42;28.63;;;10.60;99.90;;;;;;5051622;28;20057;-43
2022/11/11 05:30:04;;;;;;;40.13;28.13;;;10.70;99.90;;;;;;5052376;28;20727;-52
2022/11/11 05:32:30;;;;;;;34.28;26.55;;;10.70;99.90;;;;;;5052102;28;20538;-53
2022/11/11 05:34:55;;;;;;;41.28;28.58;;;10.70;99.90;;;;;;5052812;28;20316;-47
2022/11/11 05:37:21;;;;;;;39.83;28.85;;;10.70;99.90;;;;;;5051820;28;20312;-56
2022/11/11 05:39:47;;;;;;;40.47;27.75;;;10.70;99.90;;;;;;5052556;28;20418;-44
2022/11/11 05:42:13;;;;;;;37.78;27.85;;;10.80;99.90;;;;;;5047852;28;20538;-57
2022/11/11 05:44:39;;;;;;;37.95;27.35;;;10.80;99.90;;;;;;5060932;27;20070;-46
2022/11/11 05:47:04;;;;;;;36.58;27.10;;;10.80;99.90;;;;;;5132969;27;20489;-50
2022/11/11 05:49:30;;;;;;;34.20;27.35;;;10.80;99.90;;;;;;5118624;27;20070;-53
2022/11/11 05:51:56;;;;;;;34.22;28.05;;;10.80;99.90;;;;;;5136679;27;20050;-46
2022/11/11 05:54:22;;;;;;;35.83;29.13;;;10.80;99.90;;;;;;5136736;27;20058;-51
2022/11/11 05:56:48;;;;;;;38.33;29.77;;;10.70;99.90;;;;;;5136744;27;20042;-55
2022/11/11 05:59:14;;;;;;;39.70;30.10;;;10.70;99.90;;;;;;5135671;27;20049;-54
2022/11/11 06:01:40;;;;;;;43.25;31.00;;;10.70;99.90;;;;;;5137122;27;20042;-53
2022/11/11 06:04:06;;;;;;;44.13;33.10;;;10.70;99.90;;;;;;5118781;27;20042;-50
2022/11/11 06:06:33;;;;;;;40.95;32.15;;;10.60;99.90;;;;;;5136848;27;20072;-44
2022/11/11 06:08:59;;;;;;;41.70;32.78;;;10.60;99.90;;;;;;5131526;27;20035;-55
2022/11/11 06:11:29;;;;;;;46.60;32.85;;;10.50;99.90;;;;;;5135990;27;20502;-50
2022/11/11 06:13:55;;;;;;;49.47;33.75;;;10.50;99.90;;;;;;5136668;27;20047;-52
2022/11/11 06:16:21;;;;;;;42.72;33.80;;;10.50;99.90;;;;;;5117614;27;20053;-57
2022/11/11 06:18:48;;;;;;;43.72;33.40;;;10.50;99.90;;;;;;5117307;27;20065;-51
2022/11/11 06:21:14;;;;;;;42.90;33.22;;;10.50;99.90;;;;;;5137087;27;20035;-47
2022/11/11 06:23:40;;;;;;;43.97;34.50;;;10.50;99.90;;;;;;5117857;27;20057;-47
2022/11/11 06:26:15;;;;;;;47.22;34.38;;;10.40;99.90;;;;;;5136044;27;20088;-51
2022/11/11 06:28:47;;;;;;;44.80;35.08;;;10.50;99.90;;;;;;5117501;27;20073;-51
2022/11/11 06:31:15;;;;;;;44.17;33.90;;;10.50;99.90;;;;;;5136106;27;20049;-50
2022/11/11 06:33:41;;;;;;;45.88;32.53;;;10.50;99.90;;;;;;5136930;27;20039;-46
2022/11/11 06:36:09;;;;;;;42.08;32.38;;;10.50;99.90;;;;;;5136207;27;20049;-54
2022/11/11 06:38:34;;;;;;;43.25;33.13;;;10.50;99.90;;;;;;5135588;27;20417;-54
2022/11/11 06:41:00;;;;;;;45.60;32.80;;;10.50;99.90;;;;;;5134879;27;20146;-51
2022/11/11 06:43:26;;;;;;;43.17;33.08;;;10.50;99.90;;;;;;5117823;27;20095;-55
2022/11/11 06:45:53;;;;;;;43.50;32.28;;;10.60;99.90;;;;;;5135721;27;20123;-59
2022/11/11 06:48:20;;;;;;;46.38;35.42;;;10.50;99.90;;;;;;5135887;27;20050;-46
2022/11/11 06:50:47;;;;;;;48.90;36.00;;;10.50;99.90;;;;;;5135258;27;20054;-49
2022/11/11 06:53:15;;;;;;;50.08;35.83;;;10.50;99.90;;;;;;5136436;27;20046;-60
2022/11/11 06:55:41;;;;;;;46.20;35.13;;;10.40;99.90;;;;;;5136871;27;20121;-51
2022/11/11 06:58:09;;;;;;;49.72;34.95;;;10.40;99.90;;;;;;5135558;27;20074;-55
2022/11/11 07:00:36;;;;;;;49.65;37.05;;;10.40;99.90;;;;;;5136318;27;20506;-52
2022/11/11 07:03:05;;;;;;;43.40;35.05;;;10.40;99.90;;;;;;5135285;27;20050;-53
2022/11/11 07:05:32;;;;;;;44.60;34.88;;;10.40;99.90;;;;;;5135842;27;20149;-53
2022/11/11 07:08:09;;;;;;;48.30;36.35;;;10.40;99.90;;;;;;5116020;27;20055;-52
2022/11/11 07:10:37;;;;;;;46.30;35.00;;;10.40;99.90;;;;;;5117358;27;20428;-53
2022/11/11 07:13:06;;;;;;;52.20;38.10;;;10.40;99.90;;;;;;5116481;27;20475;-53
2022/11/11 07:15:33;;;;;;;48.78;39.08;;;10.40;99.90;;;;;;5129123;27;20459;-53
2022/11/11 07:17:59;;;;;;;47.47;37.15;;;10.30;99.90;;;;;;5116370;27;20050;-56
2022/11/11 07:20:25;;;;;;;48.75;37.58;;;10.40;99.90;;;;;;5136450;27;20038;-48
2022/11/11 07:22:50;;;;;;;48.42;36.63;;;10.30;99.90;;;;;;5137003;27;20045;-56
2022/11/11 07:25:16;;;;;;;52.28;35.20;;;10.30;99.90;;;;;;5140123;27;20090;-52
2022/11/11 07:27:43;;;;;;;45.75;35.50;;;10.40;99.90;;;;;;5139175;27;20034;-54
2022/11/11 07:30:10;;;;;;;45.53;36.83;;;10.40;99.90;;;;;;5140007;27;20053;-52
2022/11/11 07:32:36;;;;;;;51.00;36.10;;;10.30;99.90;;;;;;5138856;27;20043;-58
2022/11/11 07:35:02;;;;;;;52.83;38.50;;;10.40;99.90;;;;;;5139944;27;20453;-54
2022/11/11 07:37:30;;;;;;;49.10;36.22;;;10.40;99.90;;;;;;5120544;27;20055;-52
2022/11/11 07:39:55;;;;;;;50.38;36.25;;;10.40;99.90;;;;;;5139660;27;20321;-45
2022/11/11 07:42:21;;;;;;;51.35;36.83;;;10.40;99.90;;;;;;5138932;27;20151;-49
2022/11/11 07:44:46;;;;;;;49.47;35.38;;;10.40;99.90;;;;;;5139782;27;20434;-53
2022/11/11 07:47:12;;;;;;;46.58;36.35;;;10.40;99.90;;;;;;5138775;27;20054;-50
2022/11/11 07:49:38;;;;;;;49.67;37.10;;;10.40;99.90;;;;;;5139184;27;20331;-54
2022/11/11 07:52:04;;;;;;;47.55;35.58;;;10.30;99.90;;;;;;5138585;27;20492;-56
2022/11/11 07:54:30;;;;;;;45.45;35.75;;;10.40;99.90;;;;;;5139308;27;20042;-47
2022/11/11 07:56:55;;;;;;;46.13;35.63;;;10.40;99.90;;;;;;5139283;27;20445;-45
2022/11/11 07:59:21;;;;;;;49.33;37.47;;;10.40;99.90;;;;;;5138649;27;20046;-50
2022/11/11 08:01:47;;;;;;;46.80;36.85;;;10.40;99.90;;;;;;5119369;27;20051;-50
2022/11/11 08:04:12;;;;;;;46.05;37.10;;;10.40;99.90;;;;;;5103477;27;20047;-53
2022/11/11 08:06:38;;;;;;;46.55;35.67;;;10.40;99.90;;;;;;5134693;27;20043;-50
2022/11/11 08:09:04;;;;;;;49.35;36.15;;;10.40;99.90;;;;;;5138288;27;20217;-48
2022/11/11 08:14:13;;;;;;;46.92;36.67;;;10.50;99.90;;;;;;5124982;27;20116;-59
2022/11/11 08:16:39;;;;;;;44.28;35.92;;;10.40;99.90;;;;;;5138693;27;20604;-55
2022/11/11 08:19:05;;;;;;;42.30;35.88;;;10.50;99.90;;;;;;5137635;27;20038;-49
2022/11/11 08:21:30;;;;;;;41.17;34.85;;;10.40;99.90;;;;;;5137506;27;20047;-45
2022/11/11 08:23:56;;;;;;;41.50;34.35;;;10.40;99.90;;;;;;5139189;27;20035;-42
2022/11/11 08:26:22;;;;;;;48.05;35.58;;;10.40;99.90;;;;;;5139106;27;20043;-51
2022/11/11 08:28:50;;;;;;;49.80;34.55;;;10.40;99.90;;;;;;5137685;27;20047;-55
2022/11/11 08:31:15;;;;;;;40.03;32.83;;;10.30;99.90;;;;;;5118839;27;20082;-45
2022/11/11 08:33:41;;;;;;;47.67;34.42;;;10.40;99.90;;;;;;5118520;27;20126;-42
2022/11/11 08:36:09;;;;;;;38.20;33.45;;;10.30;99.90;;;;;;5138415;27;20657;-41
2022/11/11 08:38:35;;;;;;;44.65;32.33;;;10.30;99.90;;;;;;5119112;27;20395;-49
2022/11/11 08:41:03;;;;;;;43.72;32.97;;;10.30;99.90;;;;;;5129795;27;20043;-42
2022/11/11 08:43:31;;;;;;;39.85;32.88;;;10.30;99.90;;;;;;5135543;27;20464;-56
2022/11/11 08:45:59;;;;;;;40.17;33.85;;;10.40;99.90;;;;;;5137452;27;20146;-41
2022/11/11 08:48:25;;;;;;;37.40;33.00;;;10.30;99.90;;;;;;5137282;27;20038;-51
2022/11/11 08:50:52;;;;;;;38.58;32.50;;;10.30;99.90;;;;;;5138357;27;20043;-55
2022/11/11 08:53:18;;;;;;;41.97;33.05;;;10.40;99.90;;;;;;5138211;27;20055;-57
2022/11/11 08:55:44;;;;;;;43.88;33.40;;;10.40;99.90;;;;;;5138442;27;20043;-53
2022/11/11 08:58:10;;;;;;;41.30;33.35;;;10.40;99.90;;;;;;5119038;27;20103;-56
2022/11/11 09:00:36;;;;;;;38.50;32.22;;;10.40;99.90;;;;;;5118849;27;20049;-42
2022/11/11 09:03:11;;;;;;;38.92;31.88;;;10.40;99.90;;;;;;5137852;27;20443;-44
2022/11/11 09:05:38;;;;;;;40.97;32.15;;;10.40;99.90;;;;;;5137948;27;20452;-42
2022/11/11 09:08:06;;;;;;;47.38;33.08;;;10.40;99.90;;;;;;5118034;27;20563;-49
2022/11/11 09:10:33;;;;;;;39.95;31.80;;;10.50;99.90;;;;;;5137388;27;20087;-46
2022/11/11 09:12:59;;;;;;;41.65;31.65;;;10.50;99.90;;;;;;5137291;27;20103;-55
2022/11/11 09:15:26;;;;;;;42.95;31.77;;;10.50;99.90;;;;;;5103197;27;20086;-60
2022/11/11 09:17:52;;;;;;;42.40;31.75;;;10.50;99.90;;;;;;5137549;27;20083;-51
2022/11/11 09:20:19;;;;;;;41.28;31.77;;;10.50;99.90;;;;;;5138807;27;20968;-50
2022/11/11 09:22:46;;;;;;;40.80;30.60;;;10.50;99.90;;;;;;5137244;27;20070;-49
2022/11/11 09:25:12;;;;;;;39.22;29.85;;;10.50;99.90;;;;;;5138352;27;20042;-47
2022/11/11 09:27:38;;;;;;;38.38;32.13;;;10.60;99.90;;;;;;5136894;27;20447;-51
2022/11/11 09:30:05;;;;;;;39.15;31.02;;;10.60;99.90;;;;;;5137575;27;20110;-51
2022/11/11 09:32:32;;;;;;;36.05;28.35;;;10.60;99.90;;;;;;5132969;27;20047;-51
2022/11/11 09:34:57;;;;;;;44.88;30.58;;;10.60;99.90;;;;;;5119512;27;20046;-54
2022/11/11 09:37:23;;;;;;;37.38;29.08;;;10.60;99.90;;;;;;5117962;27;20062;-53
2022/11/11 09:39:49;;;;;;;37.30;29.80;;;10.60;99.90;;;;;;5137020;27;20034;-54
2022/11/11 09:42:36;;;;;;;36.50;29.17;;;10.60;99.90;;;;;;5132801;27;20388;-59
2022/11/11 09:45:05;;;;;;;40.28;31.05;;;10.70;99.90;;;;;;5137066;27;20039;-48
2022/11/11 09:47:47;;;;;;;40.10;31.05;;;10.70;99.90;;;;;;5127701;27;20050;-51
2022/11/11 09:50:24;;;;;;;35.38;29.27;;;10.80;99.90;;;;;;5132158;27;20034;-51
2022/11/11 09:53:05;;;;;;;36.22;30.23;;;10.80;99.90;;;;;;5137508;27;20134;-52
2022/11/11 09:55:37;;;;;;;36.40;30.83;;;10.80;99.90;;;;;;5130514;27;20638;-50
2022/11/11 09:58:19;;;;;;;35.58;29.10;;;10.70;99.90;;;;;;5133833;27;20074;-47
2022/11/11 10:00:49;;;;;;;32.42;28.25;;;10.80;99.90;;;;;;5135859;27;20126;-45
2022/11/11 10:03:22;;;;;;;35.20;29.30;;;10.90;99.90;;;;;;5134968;27;20042;-48
2022/11/11 10:05:59;;;;;;;34.47;29.13;;;10.90;99.90;;;;;;5133274;27;20149;-50
2022/11/11 10:08:32;;;;;;;37.15;30.30;;;10.90;99.90;;;;;;5114889;27;20384;-49
2022/11/11 10:10:59;;;;;;;36.05;28.77;;;10.90;99.90;;;;;;5135666;27;20090;-48
2022/11/11 10:13:28;;;;;;;38.08;29.10;;;10.90;99.90;;;;;;5135043;27;20471;-50
2022/11/11 10:16:02;;;;;;;37.78;28.60;;;10.90;99.90;;;;;;5113975;27;20049;-47
2022/11/11 10:18:57;;;;;;;39.42;29.17;;;10.90;99.90;;;;;;5130717;27;20047;-48
2022/11/11 10:21:54;;;;;;;34.45;29.25;;;10.90;99.90;;;;;;5133324;27;20046;-54
2022/11/11 10:24:32;;;;;;;32.92;27.27;;;10.90;99.90;;;;;;5130687;27;20392;-53
2022/11/11 10:27:02;;;;;;;36.13;29.67;;;10.90;99.90;;;;;;5116858;27;20570;-48
2022/11/11 10:29:36;;;;;;;37.75;28.50;;;10.90;99.90;;;;;;5116988;27;20383;-56
2022/11/11 10:32:08;;;;;;;35.53;28.52;;;10.90;99.90;;;;;;5136181;27;20043;-57
2022/11/11 10:34:35;;;;;;;32.88;26.33;;;10.90;99.90;;;;;;5135477;27;20039;-54
2022/11/11 10:37:01;;;;;;;29.65;26.35;;;11.00;99.90;;;;;;5135389;27;20039;-50
2022/11/11 10:39:44;;;;;;;33.28;28.15;;;10.90;99.90;;;;;;5135389;27;20562;-48
2022/11/11 10:42:16;;;;;;;32.80;26.27;;;10.90;99.90;;;;;;5116655;27;20119;-51
2022/11/11 10:44:43;;;;;;;30.98;26.02;;;11.00;99.90;;;;;;5138002;27;20109;-51
2022/11/11 10:47:42;;;;;;;34.38;26.83;;;11.00;99.90;;;;;;5135447;27;20038;-49
2022/11/11 10:50:17;;;;;;;30.88;26.00;;;11.00;99.90;;;;;;5134362;27;20468;-46
2022/11/11 10:53:11;;;;;;;31.10;25.45;;;11.10;99.90;;;;;;5135144;27;20547;-48
2022/11/11 10:56:03;;;;;;;28.92;25.42;;;11.10;99.90;;;;;;5129827;27;20062;-43
2022/11/11 10:59:05;;;;;;;30.00;24.48;;;11.10;99.90;;;;;;5123977;27;20046;-57
2022/11/11 11:01:40;;;;;;;28.20;25.17;;;11.10;99.90;;;;;;5032161;28;20140;-45
2022/11/11 11:04:13;;;;;;;29.52;24.80;;;11.10;99.90;;;;;;5017496;28;20049;-48
2022/11/11 11:06:43;;;;;;;31.33;24.23;;;11.00;99.90;;;;;;5035161;28;20048;-51
2022/11/11 11:09:21;;;;;;;28.23;23.92;;;11.00;99.90;;;;;;5035067;28;20556;-51
2022/11/11 11:11:52;;;;;;;30.27;23.95;;;11.10;99.90;;;;;;5018591;28;20126;-58
2022/11/11 11:14:29;;;;;;;29.77;23.58;;;11.10;99.90;;;;;;5035576;28;20873;-43
2022/11/11 11:16:59;;;;;;;31.60;23.33;;;11.10;99.90;;;;;;5017921;28;20499;-51
2022/11/11 11:19:27;;;;;;;27.88;22.23;;;11.10;99.90;;;;;;5034164;28;20432;-51
2022/11/11 11:22:01;;;;;;;25.95;21.95;;;11.10;99.90;;;;;;5034209;28;20045;-50
2022/11/11 11:24:30;;;;;;;25.05;21.90;;;11.10;99.90;;;;;;5017218;28;20402;-51
2022/11/11 11:26:58;;;;;;;29.48;24.10;;;11.20;99.90;;;;;;5033080;28;20402;-48
2022/11/11 11:29:32;;;;;;;30.85;23.65;;;11.20;99.90;;;;;;5007960;28;20502;-56
2022/11/11 11:32:15;;;;;;;29.88;25.30;;;11.20;99.90;;;;;;5033519;28;20135;-49
2022/11/11 11:34:46;;;;;;;42.85;38.33;;;11.20;99.90;;;;;;5017433;28;20359;-53
2022/11/11 11:37:12;;;;;;;27.40;21.77;;;11.20;99.90;;;;;;5035388;27;20045;-46
2022/11/11 11:39:39;;;;;;;28.50;23.10;;;11.20;99.90;;;;;;5137121;27;20415;-53
2022/11/11 11:42:06;;;;;;;26.80;23.15;;;11.20;99.90;;;;;;5116506;27;20111;-52
2022/11/11 11:44:37;;;;;;;26.17;21.70;;;11.20;99.90;;;;;;5139305;27;20443;-43
2022/11/11 11:47:25;;;;;;;26.77;24.00;;;11.20;99.90;;;;;;5138467;27;20051;-51
2022/11/11 11:50:06;;;;;;;27.85;22.48;;;11.30;99.90;;;;;;5131700;27;20074;-56
2022/11/11 11:52:44;;;;;;;28.15;23.17;;;11.20;99.90;;;;;;5138792;27;20847;-48
2022/11/11 11:55:22;;;;;;;27.30;24.35;;;11.20;99.90;;;;;;5139854;27;20122;-46
2022/11/11 11:57:51;;;;;;;26.77;23.25;;;11.30;99.90;;;;;;5129842;27;20466;-48
2022/11/11 12:00:20;;;;;;;29.23;22.27;;;11.30;99.90;;;;;;5138909;27;20038;-44
2022/11/11 12:03:00;;;;;;;26.83;22.58;;;11.30;99.90;;;;;;5121545;27;20039;-58
2022/11/11 12:05:26;;;;;;;32.08;25.85;;;11.30;99.90;;;;;;5137563;27;20091;-52
2022/11/11 12:08:10;;;;;;;27.33;23.65;;;11.30;99.90;;;;;;5138964;27;20046;-45
2022/11/11 12:10:53;;;;;;;25.80;22.23;;;11.30;99.90;;;;;;5139118;27;20043;-52
2022/11/11 12:13:57;;;;;;;27.67;23.08;;;11.30;99.90;;;;;;5139587;27;20615;-45
2022/11/11 12:16:41;;;;;;;29.25;23.75;;;11.30;99.90;;;;;;5139158;27;20042;-54
2022/11/11 12:19:28;;;;;;;28.38;22.88;;;11.20;99.90;;;;;;5101784;27;20061;-44
2022/11/11 12:22:10;;;;;;;29.52;23.23;;;11.20;99.90;;;;;;5126991;27;20039;-48
2022/11/11 12:25:11;;;;;;;30.25;25.83;;;11.10;99.90;;;;;;5120309;27;20049;-54
2022/11/11 12:28:14;;;;;;;30.50;24.95;;;11.10;99.90;;;;;;5138457;27;20122;-46
2022/11/11 12:30:48;;;;;;;27.83;23.55;;;11.10;99.90;;;;;;5138589;27;20067;-46
2022/11/11 12:33:32;;;;;;;29.42;24.00;;;11.10;99.90;;;;;;5119984;27;20395;-57
2022/11/11 12:36:03;;;;;;;32.85;25.73;;;11.10;99.90;;;;;;5138560;27;20403;-50
2022/11/11 12:39:16;;;;;;;28.40;23.70;;;11.10;99.90;;;;;;5137975;27;20579;-51
2022/11/11 12:41:51;;;;;;;30.67;24.50;;;11.10;99.90;;;;;;5031570;28;20054;-51
2022/11/11 12:44:18;;;;;;;28.05;24.65;;;11.10;99.90;;;;;;5053679;28;20159;-59
2022/11/11 12:46:55;;;;;;;30.55;24.80;;;11.10;99.90;;;;;;5053272;28;20052;-53
2022/11/11 12:49:39;;;;;;;28.40;23.85;;;11.10;99.90;;;;;;5053945;28;20438;-56
2022/11/11 12:52:28;;;;;;;26.58;23.88;;;11.10;99.90;;;;;;5052391;28;20135;-51
2022/11/11 12:55:31;;;;;;;28.92;24.75;;;11.10;99.90;;;;;;5053561;28;20597;-50
2022/11/11 12:58:00;;;;;;;31.85;25.65;;;11.10;99.90;;;;;;5052247;28;20064;-57
2022/11/11 13:00:26;;;;;;;31.40;26.08;;;11.10;99.90;;;;;;5052971;28;20065;-50
2022/11/11 13:03:03;;;;;;;30.13;25.20;;;11.10;99.90;;;;;;5053494;28;20672;-47
2022/11/11 13:05:39;;;;;;;33.42;27.25;;;11.10;99.90;;;;;;5053444;28;20052;-56
2022/11/11 13:08:23;;;;;;;32.35;27.00;;;11.10;99.90;;;;;;5040311;28;20143;-47
2022/11/11 13:11:17;;;;;;;31.48;24.85;;;11.20;99.90;;;;;;5052647;28;20495;-56
2022/11/11 13:13:58;;;;;;;27.25;24.15;;;11.20;99.90;;;;;;5125861;27;20062;-54
2022/11/11 13:16:24;;;;;;;29.75;23.23;;;11.20;99.90;;;;;;5119065;27;20092;-51
2022/11/11 13:18:59;;;;;;;29.58;23.75;;;11.10;99.90;;;;;;5118389;27;20039;-56
2022/11/11 13:21:50;;;;;;;28.38;25.23;;;11.20;99.90;;;;;;5135814;27;20445;-54
2022/11/11 13:24:21;;;;;;;32.72;25.13;;;11.20;99.90;;;;;;5137275;27;20431;-52
2022/11/11 13:26:59;;;;;;;33.72;24.65;;;11.20;99.90;;;;;;5118872;27;20051;-52
2022/11/11 13:30:02;;;;;;;29.10;24.70;;;11.20;99.90;;;;;;5137140;27;20126;-49
2022/11/11 13:32:37;;;;;;;30.05;24.67;;;11.20;99.90;;;;;;5137555;27;20075;-54
2022/11/11 13:35:25;;;;;;;27.15;23.92;;;11.20;99.90;;;;;;5137171;27;20545;-51
2022/11/11 13:37:51;;;;;;;26.90;24.00;;;11.20;99.90;;;;;;5135858;27;20400;-56
2022/11/11 13:40:44;;;;;;;28.80;24.55;;;11.20;99.90;;;;;;5133608;27;20043;-52
2022/11/11 13:43:33;;;;;;;29.20;24.58;;;11.20;99.90;;;;;;5122669;27;20050;-50
2022/11/11 13:46:01;;;;;;;31.50;25.02;;;11.30;99.90;;;;;;5117777;27;20130;-57
2022/11/11 13:48:42;;;;;;;33.63;26.17;;;11.20;99.90;;;;;;5136918;27;20378;-51
2022/11/11 13:51:33;;;;;;;30.42;27.15;;;11.20;99.90;;;;;;5137103;27;20043;-50
2022/11/11 13:54:01;;;;;;;30.13;25.42;;;11.20;99.90;;;;;;5137017;27;20127;-57
2022/11/11 13:56:48;;;;;;;31.60;25.20;;;11.30;99.90;;;;;;5119063;27;20039;-58
2022/11/11 13:59:25;;;;;;;31.42;25.23;;;11.30;99.90;;;;;;5137681;27;20181;-58
2022/11/11 14:02:25;;;;;;;30.42;26.25;;;11.30;99.90;;;;;;5136934;27;20035;-56